createdAt,value
2019-04-22T00:07:40.338Z,443.13
2019-04-22T00:12:48.631Z,497.20
2019-04-22T00:18:03.777Z,581.00
2019-04-22T00:22:56.749Z,481.50
2019-04-22T00:28:11.210Z,248.27
2019-04-22T00:33:19.070Z,136.60
2019-04-22T00:38:23.995Z,64.53
2019-04-22T00:43:37.534Z,36.27
2019-04-22T00:49:33.082Z,35.78
2019-04-22T00:54:03.540Z,91.90
2019-04-22T00:59:07.115Z,157.93
2019-04-22T01:04:23.056Z,265.17
2019-04-22T01:09:25.396Z,185.73
2019-04-22T01:14:35.641Z,79.60
2019-04-22T01:29:46.749Z,414.23
2019-04-22T01:34:52.690Z,307.02
2019-04-22T01:40:09.793Z,123.23
2019-04-22T01:45:19.261Z,50.70
2019-04-22T01:50:31.750Z,31.30
2019-04-22T01:55:43.943Z,33.67
2019-04-22T02:00:53.490Z,17.12
2019-04-22T02:06:02.431Z,18.23
2019-04-22T02:11:07.932Z,16.80
2019-04-22T02:36:43.131Z,228.83
2019-04-22T02:41:54.721Z,371.63
2019-04-22T02:47:12.001Z,158.60
2019-04-22T02:52:13.171Z,50.60
2019-04-22T02:57:33.750Z,26.73
2019-04-22T03:02:28.568Z,19.67
2019-04-22T03:23:13.738Z,16.67
2019-04-22T03:28:05.098Z,14.67
2019-04-22T03:38:20.174Z,15.33
2019-04-22T03:43:35.744Z,14.57
2019-04-22T03:48:38.199Z,14.67
2019-04-22T03:58:58.575Z,14.63
2019-04-22T04:04:09.683Z,13.00
2019-04-22T04:09:14.209Z,14.57
2019-04-22T04:35:05.380Z,12.87
2019-04-22T04:45:24.041Z,12.97
2019-04-22T05:05:43.610Z,13.33
2019-04-22T05:16:03.175Z,13.83
2019-04-22T05:21:04.688Z,13.27
2019-04-22T05:26:02.888Z,13.47
2019-04-22T05:31:01.578Z,13.18
2019-04-22T05:36:13.899Z,13.80
2019-04-22T06:06:55.104Z,14.30
2019-04-22T06:11:59.032Z,13.87
2019-04-22T06:17:10.662Z,13.35
2019-04-22T06:22:25.497Z,15.07
2019-04-22T06:27:30.882Z,13.47
2019-04-22T06:32:32.531Z,13.50
2019-04-22T06:37:43.419Z,13.63
2019-04-22T06:42:56.595Z,13.50
2019-04-22T06:53:29.699Z,13.00
2019-04-22T06:58:19.948Z,12.50
2019-04-22T07:03:41.701Z,12.80
2019-04-22T07:14:02.974Z,12.50
2019-04-22T07:24:07.018Z,12.00
2019-04-22T07:39:23.503Z,10.87
2019-04-22T07:49:39.184Z,11.57
2019-04-22T07:54:46.894Z,10.70
2019-04-22T08:00:01.127Z,10.07
2019-04-22T08:15:12.634Z,10.27
2019-04-22T08:20:25.259Z,9.00
2019-04-22T08:25:31.541Z,10.03
2019-04-22T08:30:41.483Z,9.48
2019-04-22T08:40:56.671Z,9.20
2019-04-22T08:46:06.081Z,9.17
2019-04-22T08:51:13.611Z,8.67
2019-04-22T09:16:56.389Z,8.78
2019-04-22T09:22:00.431Z,8.28
2019-04-22T09:27:03.751Z,8.10
2019-04-22T09:32:14.708Z,8.73
2019-04-22T09:42:24.701Z,8.90
2019-04-22T09:47:33.816Z,7.77
2019-04-22T09:52:43.678Z,7.90
2019-04-22T09:57:53.015Z,7.70
2019-04-22T10:03:00.502Z,7.57
2019-04-22T10:08:06.677Z,7.15
2019-04-22T10:13:18.711Z,7.93
2019-04-22T10:28:42.288Z,7.23
2019-04-22T10:33:37.905Z,7.47
2019-04-22T10:38:24.656Z,7.50
2019-04-22T10:43:30.522Z,7.50
2019-04-22T10:48:37.417Z,7.27
2019-04-22T10:53:43.824Z,8.07
2019-04-22T10:58:50.826Z,6.50
2019-04-22T11:03:57.171Z,6.90
2019-04-22T11:14:10.844Z,7.50
2019-04-22T11:29:29.923Z,7.27
2019-04-22T11:34:37.484Z,8.55
2019-04-22T11:39:44.899Z,7.40
2019-04-22T11:55:04.442Z,6.80
2019-04-22T12:00:12.494Z,7.30
2019-04-22T12:05:19.638Z,6.83
2019-04-22T12:10:34.736Z,6.80
2019-04-22T12:15:35.193Z,6.77
2019-04-22T12:20:43.288Z,7.13
2019-04-22T12:25:57.108Z,7.20
2019-04-22T12:30:57.368Z,6.87
2019-04-22T12:36:04.647Z,6.77
2019-04-22T12:41:12.218Z,6.63
2019-04-22T12:46:18.641Z,6.40
2019-04-22T12:51:25.006Z,6.27
2019-04-22T12:56:43.977Z,6.67
2019-04-22T13:01:51.206Z,6.30
2019-04-22T13:06:57.687Z,6.10
2019-04-22T13:12:03.391Z,6.40
2019-04-22T13:17:10.305Z,6.10
2019-04-22T13:32:29.001Z,6.03
2019-04-22T13:37:35.100Z,5.83
2019-04-22T13:42:41.024Z,6.27
2019-04-22T13:48:01.496Z,5.97
2019-04-22T13:53:42.811Z,5.93
2019-04-22T13:58:14.660Z,5.53
2019-04-22T14:03:16.167Z,5.53
2019-04-22T14:08:23.002Z,5.20
2019-04-22T14:13:30.074Z,5.10
2019-04-22T14:18:37.019Z,5.17
2019-04-22T14:28:50.581Z,4.77
2019-04-22T14:39:04.280Z,4.87
2019-04-22T14:44:04.583Z,4.63
2019-04-22T14:49:42.040Z,5.10
2019-04-22T14:54:38.722Z,5.40
2019-04-22T14:59:33.281Z,37.50
2019-04-22T15:04:39.748Z,14.43
2019-04-22T15:09:46.222Z,12.10
2019-04-22T15:14:59.637Z,13.50
2019-04-22T15:20:11.944Z,11.10
2019-04-22T15:25:18.776Z,35.60
2019-04-22T15:30:25.551Z,53.33
2019-04-22T15:40:38.639Z,27.17
2019-04-22T15:45:44.516Z,27.47
2019-04-22T15:50:50.778Z,45.30
2019-04-22T15:55:56.797Z,44.67
2019-04-22T16:01:12.991Z,20.63
2019-04-22T16:06:10.303Z,12.93
2019-04-22T16:11:16.271Z,13.47
2019-04-22T16:16:23.061Z,20.15
2019-04-22T16:21:38.224Z,20.23
2019-04-22T16:26:40.240Z,26.97
2019-04-22T16:36:54.620Z,50.60
2019-04-22T16:42:00.735Z,27.57
2019-04-22T16:53:41.133Z,22.10
2019-04-22T16:58:48.628Z,16.17
2019-04-22T17:04:12.397Z,76.02
2019-04-22T17:09:17.935Z,123.23
2019-04-22T17:14:35.143Z,262.70
2019-04-22T17:19:35.353Z,180.93
2019-04-22T17:24:41.674Z,185.23
2019-04-22T17:29:48.492Z,53.40
2019-04-22T17:34:55.018Z,46.27
2019-04-22T17:40:15.945Z,124.83
2019-04-22T17:45:33.842Z,200.03
2019-04-22T17:50:50.725Z,287.23
2019-04-22T17:56:02.113Z,165.57
2019-04-22T18:01:09.389Z,407.73
2019-04-22T18:05:58.022Z,133.97
2019-04-22T18:11:29.136Z,157.00
2019-04-22T18:16:32.288Z,102.07
2019-04-22T18:21:31.941Z,84.77
2019-04-22T18:26:40.191Z,276.30
2019-04-22T18:31:43.239Z,301.80
2019-04-22T18:36:57.934Z,82.30
2019-04-22T18:47:13.053Z,169.77
2019-04-22T18:52:42.710Z,124.37
2019-04-22T18:58:00.863Z,86.97
2019-04-22T19:02:58.485Z,82.00
2019-04-22T19:08:31.550Z,616.83
2019-04-22T19:13:54.256Z,335.13
2019-04-22T19:23:41.500Z,130.97
2019-04-22T19:28:55.509Z,139.57
2019-04-22T19:34:00.769Z,122.63
2019-04-22T19:38:58.956Z,96.93
2019-04-22T19:44:15.433Z,102.50
2019-04-22T19:49:33.321Z,77.77
2019-04-22T19:54:33.832Z,329.83
2019-04-22T19:59:45.508Z,173.17
2019-04-22T20:04:59.358Z,230.10
2019-04-22T20:15:11.312Z,219.53
2019-04-22T20:25:20.865Z,135.77
2019-04-22T20:30:39.830Z,304.53
2019-04-22T20:35:43.505Z,471.27
2019-04-22T20:40:55.150Z,312.40
2019-04-22T20:46:05.971Z,294.20
2019-04-22T20:51:12.497Z,433.65
2019-04-22T20:56:17.502Z,476.67
2019-04-22T21:01:24.317Z,252.13
2019-04-22T21:06:35.033Z,467.97
2019-04-22T21:16:51.717Z,519.52
2019-04-22T21:21:57.798Z,928.23
2019-04-22T21:27:09.212Z,544.33
2019-04-22T21:32:15.595Z,382.20
2019-04-22T21:37:26.509Z,196.93
2019-04-22T21:42:26.559Z,84.80
2019-04-22T21:47:48.776Z,86.92
2019-04-22T21:52:54.520Z,43.60
2019-04-22T21:58:04.816Z,36.37
2019-04-22T22:03:13.003Z,30.63
2019-04-22T22:08:12.314Z,31.50
2019-04-22T22:13:24.684Z,28.43
2019-04-22T22:18:26.119Z,28.27
2019-04-22T22:23:44.061Z,25.60
2019-04-22T22:28:57.180Z,24.90
2019-04-22T22:34:01.865Z,29.80
2019-04-22T22:38:58.470Z,259.23
2019-04-22T22:44:03.214Z,177.40
2019-04-22T22:49:28.302Z,227.00
2019-04-22T23:00:03.847Z,84.87
2019-04-22T23:05:15.428Z,43.97
2019-04-22T23:10:24.760Z,113.50
2019-04-22T23:15:37.244Z,111.53
2019-04-22T23:31:12.550Z,99.50
2019-04-22T23:36:21.895Z,256.47
2019-04-22T23:46:48.925Z,170.97
2019-04-22T23:52:20.723Z,480.53
2019-04-22T23:57:08.343Z,380.13
